createdAt,value
2019-03-19T00:01:42.945Z,5.00
2019-03-19T00:04:33.334Z,5.10
2019-03-19T00:07:22.250Z,5.10
2019-03-19T00:10:11.696Z,5.10
2019-03-19T00:13:00.837Z,5.00
2019-03-19T00:15:50.445Z,5.00
2019-03-19T00:18:39.690Z,5.00
2019-03-19T00:21:28.560Z,4.90
2019-03-19T00:24:17.382Z,4.90
2019-03-19T00:27:06.429Z,4.90
2019-03-19T00:29:55.449Z,4.90
2019-03-19T00:32:44.218Z,4.90
2019-03-19T00:35:33.482Z,4.80
2019-03-19T00:38:22.483Z,4.90
2019-03-19T00:41:11.847Z,4.80
2019-03-19T00:44:01.084Z,4.80
2019-03-19T00:46:49.912Z,4.80
2019-03-19T00:49:39.136Z,4.60
2019-03-19T00:52:28.068Z,4.60
2019-03-19T00:55:17.209Z,4.60
2019-03-19T00:58:06.419Z,4.60
2019-03-19T01:00:55.924Z,4.60
2019-03-19T01:03:45.048Z,4.50
2019-03-19T01:06:34.019Z,4.50
2019-03-19T01:09:22.571Z,4.50
2019-03-19T01:12:11.245Z,4.50
2019-03-19T01:15:00.428Z,4.50
2019-03-19T01:17:48.841Z,4.50
2019-03-19T01:20:18.953Z,4.50
2019-03-19T01:23:08.043Z,4.50
2019-03-19T01:25:57.437Z,4.60
2019-03-19T01:28:46.668Z,4.50
2019-03-19T01:31:35.751Z,4.60
2019-03-19T01:34:24.406Z,4.60
2019-03-19T01:36:57.736Z,4.60
2019-03-19T01:39:47.177Z,4.60
2019-03-19T01:42:36.424Z,4.50
2019-03-19T01:45:25.022Z,4.50
2019-03-19T01:48:13.716Z,4.50
2019-03-19T01:51:02.784Z,4.40
2019-03-19T01:53:51.407Z,4.40
2019-03-19T01:56:40.637Z,4.40
2019-03-19T01:59:28.963Z,4.40
2019-03-19T02:02:17.390Z,4.40
2019-03-19T02:05:06.702Z,4.30
2019-03-19T02:07:56.840Z,4.20
2019-03-19T02:10:45.633Z,4.30
2019-03-19T02:13:34.457Z,4.30
2019-03-19T02:16:23.322Z,4.20
2019-03-19T02:19:12.729Z,4.20
2019-03-19T02:22:02.251Z,4.20
2019-03-19T02:24:50.961Z,4.20
2019-03-19T02:27:39.941Z,4.10
2019-03-19T02:30:29.148Z,4.10
2019-03-19T02:33:03.266Z,4.10
2019-03-19T02:35:52.647Z,4.10
2019-03-19T02:38:41.267Z,4.10
2019-03-19T02:41:30.554Z,4.10
2019-03-19T02:44:19.514Z,4.10
2019-03-19T02:47:08.149Z,4.10
2019-03-19T02:49:56.696Z,4.10
2019-03-19T02:52:45.669Z,4.00
2019-03-19T02:55:35.042Z,4.00
2019-03-19T02:58:24.301Z,4.00
2019-03-19T03:01:12.908Z,4.00
2019-03-19T03:04:02.309Z,3.90
2019-03-19T03:06:50.635Z,3.90
2019-03-19T03:09:39.978Z,3.90
2019-03-19T03:12:29.376Z,3.90
2019-03-19T03:15:17.972Z,3.90
2019-03-19T03:18:07.214Z,3.90
2019-03-19T03:20:56.680Z,3.90
2019-03-19T03:23:45.131Z,3.90
2019-03-19T03:26:47.057Z,3.90
2019-03-19T03:29:24.301Z,3.90
2019-03-19T03:32:12.902Z,3.80
2019-03-19T03:35:01.831Z,3.70
2019-03-19T03:37:50.467Z,3.70
2019-03-19T03:40:39.604Z,3.70
2019-03-19T03:43:28.118Z,3.80
2019-03-19T03:46:16.659Z,3.80
2019-03-19T03:49:05.420Z,3.70
2019-03-19T03:51:54.337Z,3.70
2019-03-19T03:54:43.314Z,3.70
2019-03-19T03:57:32.382Z,3.70
2019-03-19T04:00:21.604Z,3.70
2019-03-19T04:03:11.023Z,3.70
2019-03-19T04:05:59.774Z,3.70
2019-03-19T04:08:48.309Z,3.70
2019-03-19T04:11:37.418Z,3.80
2019-03-19T04:14:26.637Z,3.70
2019-03-19T04:17:15.497Z,3.70
2019-03-19T04:20:05.554Z,3.70
2019-03-19T04:22:54.973Z,3.70
2019-03-19T04:25:43.684Z,3.70
2019-03-19T04:28:32.872Z,3.60
2019-03-19T04:31:21.715Z,3.60
2019-03-19T04:34:10.637Z,3.60
2019-03-19T04:37:00.083Z,3.50
2019-03-19T04:39:48.583Z,3.50
2019-03-19T04:42:37.805Z,3.40
2019-03-19T04:45:26.762Z,3.40
2019-03-19T04:48:15.699Z,3.50
2019-03-19T04:51:04.864Z,3.40
2019-03-19T04:53:54.016Z,3.50
2019-03-19T04:56:42.607Z,3.50
2019-03-19T04:59:31.850Z,3.40
2019-03-19T05:02:21.236Z,3.50
2019-03-19T05:05:10.452Z,3.40
2019-03-19T05:07:59.691Z,3.40
2019-03-19T05:10:48.653Z,3.40
2019-03-19T05:13:38.076Z,3.40
2019-03-19T05:16:26.900Z,3.40
2019-03-19T05:19:16.186Z,3.40
2019-03-19T05:22:05.896Z,3.40
2019-03-19T05:24:55.161Z,3.40
2019-03-19T05:27:43.968Z,3.40
2019-03-19T05:30:33.531Z,3.30
2019-03-19T05:33:22.712Z,3.30
2019-03-19T05:36:12.468Z,3.30
2019-03-19T05:39:01.368Z,3.30
2019-03-19T05:41:49.849Z,3.30
2019-03-19T05:44:39.513Z,3.30
2019-03-19T05:47:36.749Z,3.30
2019-03-19T05:50:19.656Z,3.40
2019-03-19T05:53:08.752Z,3.40
2019-03-19T05:55:57.730Z,3.40
2019-03-19T05:58:46.964Z,3.30
2019-03-19T06:01:35.932Z,3.30
2019-03-19T06:04:24.607Z,3.40
2019-03-19T06:07:13.779Z,3.40
2019-03-19T06:10:02.884Z,3.40
2019-03-19T06:12:51.930Z,3.40
2019-03-19T06:15:43.821Z,3.40
2019-03-19T06:18:35.320Z,3.40
2019-03-19T06:21:24.609Z,3.50
2019-03-19T06:24:13.802Z,3.50
2019-03-19T06:27:03.270Z,3.50
2019-03-19T06:29:54.434Z,3.50
2019-03-19T06:32:43.836Z,3.50
2019-03-19T06:35:32.498Z,3.60
2019-03-19T06:38:21.897Z,3.60
2019-03-19T06:41:10.855Z,3.70
2019-03-19T06:43:59.743Z,3.80
2019-03-19T06:46:48.605Z,3.80
2019-03-19T06:49:37.602Z,3.80
2019-03-19T06:52:26.949Z,3.90
2019-03-19T06:55:15.202Z,4.00
2019-03-19T06:58:10.879Z,4.10
2019-03-19T07:00:55.241Z,4.10
2019-03-19T07:03:43.939Z,4.10
2019-03-19T07:06:33.334Z,4.20
2019-03-19T07:09:22.993Z,4.20
2019-03-19T07:12:12.682Z,4.20
2019-03-19T07:15:01.510Z,4.30
2019-03-19T07:17:50.603Z,4.30
2019-03-19T07:20:39.101Z,4.30
2019-03-19T07:23:28.740Z,4.30
2019-03-19T07:26:18.152Z,4.30
2019-03-19T07:29:07.375Z,4.40
2019-03-19T07:31:55.932Z,4.40
2019-03-19T07:34:44.725Z,4.40
2019-03-19T07:37:34.269Z,4.40
2019-03-19T07:40:22.884Z,4.40
2019-03-19T07:43:12.444Z,4.40
2019-03-19T07:46:01.224Z,4.50
2019-03-19T07:48:50.754Z,4.50
2019-03-19T07:51:39.972Z,4.50
2019-03-19T07:54:29.269Z,4.60
2019-03-19T07:57:20.506Z,4.60
2019-03-19T08:00:12.658Z,4.60
2019-03-19T08:03:01.605Z,4.60
2019-03-19T08:05:50.493Z,4.70
2019-03-19T08:08:40.681Z,4.70
2019-03-19T08:11:29.584Z,4.80
2019-03-19T08:14:18.780Z,4.80
2019-03-19T08:17:07.886Z,4.80
2019-03-19T08:19:57.334Z,4.70
2019-03-19T08:22:46.695Z,4.80
2019-03-19T08:25:35.617Z,4.80
2019-03-19T08:28:24.298Z,4.90
2019-03-19T08:31:13.873Z,5.00
2019-03-19T08:34:03.126Z,5.00
2019-03-19T08:36:51.775Z,5.10
2019-03-19T08:39:40.654Z,5.10
2019-03-19T08:42:29.722Z,5.10
2019-03-19T08:45:18.928Z,5.20
2019-03-19T08:48:08.084Z,5.20
2019-03-19T08:50:57.155Z,5.30
2019-03-19T08:53:46.046Z,5.40
2019-03-19T08:56:35.278Z,5.40
2019-03-19T08:59:24.460Z,5.50
2019-03-19T09:02:13.420Z,5.50
2019-03-19T09:05:03.177Z,5.50
2019-03-19T09:07:52.238Z,5.60
2019-03-19T09:10:42.180Z,5.60
2019-03-19T09:13:30.882Z,5.70
2019-03-19T09:16:20.314Z,5.70
2019-03-19T09:19:09.217Z,5.60
2019-03-19T09:21:58.897Z,5.90
2019-03-19T09:24:48.011Z,6.00
2019-03-19T09:27:37.148Z,6.10
2019-03-19T09:30:26.181Z,6.20
2019-03-19T09:33:15.064Z,6.20
2019-03-19T09:36:04.497Z,6.30
2019-03-19T09:38:54.034Z,6.30
2019-03-19T09:41:43.434Z,6.40
2019-03-19T09:44:32.484Z,6.60
2019-03-19T09:47:21.732Z,6.70
2019-03-19T09:50:11.784Z,6.70
2019-03-19T09:53:00.721Z,6.80
2019-03-19T09:55:50.012Z,6.80
2019-03-19T09:58:38.892Z,6.90
2019-03-19T10:01:27.830Z,7.00
2019-03-19T10:04:16.730Z,7.10
2019-03-19T10:07:06.539Z,7.20
2019-03-19T10:09:55.947Z,7.30
2019-03-19T10:12:45.523Z,7.40
2019-03-19T10:15:34.750Z,7.50
2019-03-19T10:18:24.420Z,7.60
2019-03-19T10:21:12.778Z,7.70
2019-03-19T10:24:01.784Z,7.70
2019-03-19T10:26:51.206Z,7.80
2019-03-19T10:29:40.485Z,7.90
2019-03-19T10:32:31.902Z,8.00
2019-03-19T10:35:21.513Z,8.00
2019-03-19T10:38:10.466Z,8.10
2019-03-19T10:40:58.977Z,8.20
2019-03-19T10:43:47.343Z,8.20
2019-03-19T10:46:36.665Z,8.30
2019-03-19T10:49:25.917Z,8.40
2019-03-19T10:52:15.422Z,8.50
2019-03-19T10:55:05.133Z,8.60
2019-03-19T10:57:53.930Z,8.60
2019-03-19T11:00:43.675Z,8.60
2019-03-19T11:03:32.800Z,8.70
2019-03-19T11:06:21.886Z,8.70
2019-03-19T11:09:10.564Z,8.80
2019-03-19T11:11:59.280Z,8.90
2019-03-19T11:14:48.503Z,9.00
2019-03-19T11:17:37.317Z,9.10
2019-03-19T11:20:26.322Z,9.10
2019-03-19T11:23:15.136Z,9.10
2019-03-19T11:26:04.410Z,9.10
2019-03-19T11:28:53.638Z,9.20
2019-03-19T11:31:42.827Z,9.20
2019-03-19T11:34:32.329Z,9.40
2019-03-19T11:37:40.907Z,9.40
2019-03-19T11:40:30.425Z,9.40
2019-03-19T11:43:19.358Z,9.70
2019-03-19T11:46:08.753Z,9.60
2019-03-19T11:48:59.237Z,9.60
2019-03-19T11:51:48.159Z,9.60
2019-03-19T11:54:37.537Z,9.70
2019-03-19T11:57:26.837Z,9.70
2019-03-19T12:00:21.132Z,9.80
2019-03-19T12:03:16.060Z,9.80
2019-03-19T12:06:02.318Z,10.00
2019-03-19T12:08:51.345Z,10.00
2019-03-19T12:11:41.032Z,10.10
2019-03-19T12:14:29.432Z,10.10
2019-03-19T12:17:18.905Z,10.20
2019-03-19T12:20:08.210Z,10.20
2019-03-19T12:22:57.333Z,10.40
2019-03-19T12:25:45.961Z,10.60
2019-03-19T12:28:39.665Z,10.70
2019-03-19T12:31:25.337Z,10.70
2019-03-19T12:34:14.191Z,10.80
2019-03-19T12:37:03.175Z,10.80
2019-03-19T12:39:52.026Z,10.80
2019-03-19T12:42:40.913Z,10.80
2019-03-19T12:45:30.213Z,10.80
2019-03-19T12:48:19.377Z,10.80
2019-03-19T12:51:08.003Z,10.70
2019-03-19T12:53:56.975Z,10.70
2019-03-19T12:56:46.134Z,10.80
2019-03-19T12:59:35.009Z,10.90
2019-03-19T13:02:24.065Z,11.00
2019-03-19T13:05:13.252Z,11.10
2019-03-19T13:08:01.956Z,11.10
2019-03-19T13:10:51.064Z,11.00
2019-03-19T13:13:41.043Z,10.90
2019-03-19T13:16:29.870Z,11.10
2019-03-19T13:19:18.919Z,12.00
2019-03-19T13:22:07.857Z,11.70
2019-03-19T13:24:56.749Z,11.70
2019-03-19T13:30:44.638Z,11.70
2019-03-19T13:33:25.601Z,11.90
2019-03-19T13:36:14.789Z,12.10
2019-03-19T13:39:04.779Z,12.10
2019-03-19T13:41:53.759Z,12.00
2019-03-19T13:44:43.573Z,12.00
2019-03-19T13:50:28.728Z,12.00
2019-03-19T13:53:20.327Z,12.10
2019-03-19T13:56:11.257Z,12.10
2019-03-19T13:59:00.433Z,12.00
2019-03-19T14:01:49.542Z,11.90
2019-03-19T14:04:37.907Z,11.80
2019-03-19T14:07:27.309Z,11.90
2019-03-19T14:10:21.883Z,11.80
2019-03-19T14:13:11.072Z,11.90
2019-03-19T14:16:04.600Z,12.00
2019-03-19T14:18:53.131Z,12.20
2019-03-19T14:21:44.026Z,12.40
2019-03-19T14:24:33.544Z,12.50
2019-03-19T14:27:24.887Z,12.50
2019-03-19T14:30:15.964Z,12.40
2019-03-19T14:33:07.454Z,12.50
2019-03-19T14:35:57.086Z,12.50
2019-03-19T14:38:50.334Z,12.40
2019-03-19T14:41:40.036Z,12.40
2019-03-19T14:44:29.020Z,12.20
2019-03-19T14:47:18.006Z,12.30
2019-03-19T14:50:07.753Z,12.20
2019-03-19T14:52:57.156Z,12.20
2019-03-19T14:55:46.043Z,12.10
2019-03-19T14:58:35.319Z,12.00
2019-03-19T15:01:24.300Z,11.90
2019-03-19T15:04:13.633Z,11.80
2019-03-19T15:07:03.161Z,11.80
2019-03-19T15:09:52.058Z,11.80
2019-03-19T15:12:41.590Z,11.90
2019-03-19T15:15:30.796Z,12.10
2019-03-19T15:18:19.781Z,12.10
2019-03-19T15:21:08.938Z,12.10
2019-03-19T15:23:57.357Z,12.00
2019-03-19T15:26:45.935Z,11.90
2019-03-19T15:29:34.670Z,11.80
2019-03-19T15:32:23.398Z,11.70
2019-03-19T15:35:12.567Z,11.60
2019-03-19T15:38:01.741Z,11.50
2019-03-19T15:40:51.038Z,11.40
2019-03-19T15:43:40.183Z,11.30
2019-03-19T15:46:29.333Z,11.20
2019-03-19T15:49:18.037Z,11.20
2019-03-19T15:52:06.995Z,11.10
2019-03-19T15:54:56.251Z,11.00
2019-03-19T15:57:45.707Z,11.00
2019-03-19T16:00:34.807Z,10.90
2019-03-19T16:03:23.805Z,10.90
2019-03-19T16:06:12.504Z,10.90
2019-03-19T16:09:03.351Z,10.90
2019-03-19T16:11:52.931Z,11.00
2019-03-19T16:14:42.484Z,11.00
2019-03-19T16:17:31.541Z,11.10
2019-03-19T16:20:20.967Z,11.10
2019-03-19T16:23:10.661Z,11.20
2019-03-19T16:25:59.697Z,11.20
2019-03-19T16:28:48.930Z,11.20
2019-03-19T16:31:38.590Z,11.20
2019-03-19T16:34:27.808Z,11.20
2019-03-19T16:37:17.074Z,11.10
2019-03-19T16:40:10.977Z,11.10
2019-03-19T16:43:00.157Z,11.00
2019-03-19T16:45:49.761Z,11.00
2019-03-19T16:48:38.723Z,11.00
2019-03-19T16:51:27.024Z,11.00
2019-03-19T16:54:16.714Z,10.90
2019-03-19T16:57:06.271Z,10.90
2019-03-19T16:59:55.116Z,10.80
2019-03-19T17:02:44.018Z,10.80
2019-03-19T17:05:32.702Z,10.70
2019-03-19T17:08:21.980Z,10.70
2019-03-19T17:11:10.614Z,10.70
2019-03-19T17:13:59.974Z,10.60
2019-03-19T17:16:48.538Z,10.60
2019-03-19T17:19:37.846Z,10.60
2019-03-19T17:22:27.781Z,10.50
2019-03-19T17:25:00.511Z,10.50
2019-03-19T17:27:49.659Z,10.40
2019-03-19T17:30:38.597Z,10.40
2019-03-19T17:33:27.584Z,10.30
2019-03-19T17:36:16.404Z,10.20
2019-03-19T17:39:24.480Z,10.20
2019-03-19T17:42:13.481Z,10.00
2019-03-19T17:45:02.043Z,10.00
2019-03-19T17:47:50.694Z,9.90
2019-03-19T17:50:39.464Z,9.80
2019-03-19T17:53:28.850Z,9.80
2019-03-19T17:56:17.463Z,9.70
2019-03-19T17:59:06.483Z,9.80
2019-03-19T18:01:55.706Z,9.70
2019-03-19T18:04:44.811Z,9.80
2019-03-19T18:07:33.989Z,9.70
2019-03-19T18:10:23.706Z,9.60
2019-03-19T18:13:13.122Z,9.60
2019-03-19T18:16:01.751Z,9.60
2019-03-19T18:18:51.150Z,9.50
2019-03-19T18:21:40.350Z,9.50
2019-03-19T18:24:29.021Z,9.90
2019-03-19T18:27:19.951Z,9.50
2019-03-19T18:30:16.705Z,9.40
2019-03-19T18:33:05.451Z,9.30
2019-03-19T18:35:56.428Z,9.30
2019-03-19T18:38:44.810Z,9.30
2019-03-19T18:41:35.492Z,9.30
2019-03-19T18:44:24.972Z,9.20
2019-03-19T18:47:14.174Z,9.10
2019-03-19T18:50:04.093Z,9.10
2019-03-19T18:52:53.532Z,9.10
2019-03-19T18:55:42.707Z,9.10
2019-03-19T18:58:31.758Z,9.00
2019-03-19T19:01:20.876Z,9.00
2019-03-19T19:04:09.577Z,8.90
2019-03-19T19:06:50.327Z,8.90
2019-03-19T19:09:39.363Z,8.80
2019-03-19T19:12:30.882Z,8.80
2019-03-19T19:15:19.749Z,8.80
2019-03-19T19:18:08.757Z,8.70
2019-03-19T19:20:57.594Z,8.70
2019-03-19T19:23:32.619Z,8.70
2019-03-19T19:26:02.708Z,8.70
2019-03-19T19:28:51.840Z,8.70
2019-03-19T19:31:24.272Z,8.70
2019-03-19T19:33:54.367Z,8.60
2019-03-19T19:36:24.447Z,8.60
2019-03-19T19:38:55.033Z,8.60
2019-03-19T19:41:25.498Z,8.50
2019-03-19T19:43:55.531Z,8.50
2019-03-19T19:46:25.690Z,8.50
2019-03-19T19:49:01.248Z,8.50
2019-03-19T19:51:31.530Z,8.50
2019-03-19T19:54:01.779Z,8.40
2019-03-19T19:56:32.350Z,8.40
2019-03-19T19:59:02.949Z,8.30
2019-03-19T20:01:33.337Z,8.40
2019-03-19T20:04:03.622Z,8.30
2019-03-19T20:06:33.959Z,8.30
2019-03-19T20:09:06.129Z,8.40
2019-03-19T20:11:38.540Z,8.80
2019-03-19T20:14:08.327Z,8.20
2019-03-19T20:16:38.546Z,8.20
2019-03-19T20:19:11.769Z,8.20
2019-03-19T20:21:42.064Z,8.20
2019-03-19T20:24:12.240Z,8.20
2019-03-19T20:26:42.549Z,8.20
2019-03-19T20:29:32.105Z,8.10
2019-03-19T20:32:21.842Z,8.10
2019-03-19T20:34:55.773Z,8.10
2019-03-19T20:37:26.018Z,8.10
2019-03-19T20:39:56.260Z,8.10
2019-03-19T20:42:26.749Z,8.10
2019-03-19T20:44:56.935Z,8.00
2019-03-19T20:47:27.205Z,8.00
2019-03-19T20:49:57.674Z,8.10
2019-03-19T20:52:27.818Z,8.10
2019-03-19T20:54:58.124Z,8.10
2019-03-19T20:57:28.364Z,8.00
2019-03-19T20:59:58.972Z,8.00
2019-03-19T21:02:29.232Z,8.00
2019-03-19T21:04:59.849Z,8.00
2019-03-19T21:07:30.438Z,8.00
2019-03-19T21:10:04.798Z,8.00
2019-03-19T21:12:35.223Z,8.00
2019-03-19T21:15:25.192Z,7.90
2019-03-19T21:18:14.823Z,7.90
2019-03-19T21:21:03.916Z,7.90
2019-03-19T21:23:53.121Z,8.00
2019-03-19T21:26:43.882Z,7.90
2019-03-19T21:29:33.345Z,7.90
2019-03-19T21:32:23.066Z,7.90
2019-03-19T21:35:12.436Z,7.90
2019-03-19T21:38:01.344Z,7.90
2019-03-19T21:40:53.011Z,7.80
2019-03-19T21:43:42.173Z,7.80
2019-03-19T21:46:31.818Z,7.80
2019-03-19T21:49:21.177Z,7.80
2019-03-19T21:52:11.109Z,7.80
2019-03-19T21:55:00.123Z,7.80
2019-03-19T21:57:49.835Z,7.70
2019-03-19T22:00:38.985Z,7.60
2019-03-19T22:03:27.406Z,7.60
2019-03-19T22:06:16.895Z,7.60
2019-03-19T22:08:46.950Z,7.60
2019-03-19T22:11:35.561Z,7.50
2019-03-19T22:14:24.541Z,7.50
2019-03-19T22:17:13.883Z,7.50
2019-03-19T22:20:04.409Z,7.40
2019-03-19T22:22:53.547Z,7.40
2019-03-19T22:25:42.566Z,7.40
2019-03-19T22:28:31.374Z,7.40
2019-03-19T22:31:20.627Z,7.30
2019-03-19T22:34:14.377Z,7.40
2019-03-19T22:36:57.234Z,7.30
2019-03-19T22:39:46.317Z,7.30
2019-03-19T22:42:35.504Z,7.30
2019-03-19T22:45:24.745Z,7.20
2019-03-19T22:48:13.974Z,7.20
2019-03-19T22:51:03.461Z,7.20
2019-03-19T22:53:52.662Z,7.20
2019-03-19T22:56:42.946Z,7.20
2019-03-19T22:59:13.261Z,7.10
2019-03-19T23:02:02.095Z,7.10
2019-03-19T23:04:50.909Z,7.10
2019-03-19T23:07:40.626Z,7.10
2019-03-19T23:10:29.646Z,7.20
2019-03-19T23:12:59.846Z,7.20
2019-03-19T23:15:49.343Z,7.20
2019-03-19T23:18:38.733Z,7.10
2019-03-19T23:21:27.945Z,7.10
2019-03-19T23:24:16.796Z,7.10
2019-03-19T23:27:12.836Z,7.00
2019-03-19T23:30:01.474Z,7.00
2019-03-19T23:32:50.686Z,7.00
2019-03-19T23:35:21.028Z,7.00
2019-03-19T23:37:51.229Z,6.40
2019-03-19T23:40:40.707Z,7.00
2019-03-19T23:43:30.137Z,7.00
2019-03-19T23:46:18.669Z,6.90
2019-03-19T23:49:07.948Z,6.90
2019-03-19T23:51:56.752Z,6.90
2019-03-19T23:54:45.940Z,6.90
2019-03-19T23:57:35.039Z,6.90
